Metar Cercanos

 

LEPA - Palma De Mallorc, Spain
Distance from station: ONO 38km
Actualización: Fri, 01-Jul-2022 12:30am CEST
Few Clouds
Few Clouds
 Viento del varies
Viento: varies 4 km/h
Temperatura: 23°C
Rocío: 21°C
Humedad: 89%
Barómetro: 1014 hPa
Clouds: Few Clouds
Visibility: 10 km
Cloud details: Few Clouds 610 m
2022/06/30 22:30 LEPA 302230Z VRB02KT 9999 FEW020 23/21 Q1014 NOSIG
LEMH - Mahon/Menorca Is, Spain
Distance from station: ENE 105km
Actualización: Fri, 01-Jul-2022 12:30am CEST
Few Clouds
Few Clouds
 Viento del ENE
Viento: ENE 7 km/h
Temperatura: 24°C
Rocío: 22°C
Humedad: 89%
Barómetro: 1014 hPa
Clouds: Few Clouds
Visibility: 10 km
Cloud details: Few Clouds 366 m
2022/06/30 22:30 LEMH 302230Z 06004KT 9999 FEW012 24/22 Q1014
 
LEIB - Ibiza/Es Codola, Spain
Distance from station: OSO 165km
Actualización: Fri, 01-Jul-2022 12:30am CEST
Parcialmente nuboso
Parcialmente nuboso
 Viento del NNO
Viento: NNO 7 km/h
Temperatura: 24°C
Rocío: 20°C
Humedad: 78%
Barómetro: 1013 hPa
Clouds: Parcialmente nuboso
Visibility: 10 km
Cloud details: Few Clouds 610 m
Parcialmente nuboso 732 m
2022/06/30 22:30 LEIB 302230Z 33004KT 280V010 9999 FEW020 SCT024 24/20 Q1013 NOSIG
LEBL - Barcelona Airpor, Spain
Distance from station: NNO 225km
Actualización: Fri, 01-Jul-2022 12:30am CEST
Muy nuboso
Muy nuboso
 Viento del E
Viento: E 17 km/h
Temperatura: 23°C
Rocío: 16°C
Humedad: 65%
Barómetro: 1015 hPa
Clouds: Muy nuboso
Visibility: 10 km
Cloud details: Few Clouds 610 m
Parcialmente nuboso 945 m
Muy nuboso 1311 m
2022/06/30 22:30 LEBL 302230Z 09009KT 060V120 9999 FEW020 SCT031 BKN043 23/16 Q1015 NOSIG
 
LEVC - Valencia (civ/Mi, Spain
Distance from station: NO 188km
Actualización: Fri, 01-Jul-2022 12:30am CEST
Parcialmente nuboso
Parcialmente nuboso
 Viento del ENE
Viento: ENE 9 km/h
Temperatura: 24°C
Rocío: 20°C
Humedad: 78%
Barómetro: 1015 hPa
Clouds: Parcialmente nuboso
Visibility: 10 km
Cloud details: Parcialmente nuboso 488 m
2022/06/30 22:30 LEVC 302230Z 07005KT 9999 SCT016 24/20 Q1015 NOSIG
LEGE - Gerona/Costa Bra, Spain
Distance from station: N 276km
Actualización: Fri, 01-Jul-2022 12:30am CEST
Despejado
Despejado
 Viento del varies
Viento: varies 4 km/h
Temperatura: 17°C
Rocío: 11°C
Humedad: 68%
Barómetro: 1015 hPa
Resumen: Despejado
Visibility: greater than 10 km
2022/06/30 22:30 LEGE 302230Z VRB02KT CAVOK 17/11 Q1015
 
LEAL - Alicante/El Alte, Spain
Distance from station: OSO 344km
Actualización: Fri, 01-Jul-2022 12:30am CEST
Despejado
Despejado
 Viento del calm
Viento: Calma
Temperatura: 22°C
Rocío: 19°C
Humedad: 83%
Barómetro: 1013 hPa
Resumen: Despejado
Visibility: greater than 10 km
2022/06/30 22:30 LEAL 302230Z 00000KT CAVOK 22/19 Q1013 NOSIG
LEAM - Almeria Airport, Spain
Distance from station: SSO 56km
Actualización: Fri, 01-Jul-2022 12:30am CEST
Despejado
Despejado
 Viento del calm
Viento: Calma
Temperatura: 21°C
Rocío: 20°C
Humedad: 94%
Barómetro: 1012 hPa
Clouds: Despejado
Visibility: 10 km
2022/06/30 22:30 LEAM 302230Z AUTO 00000KT 9999 3200NE NCD 21/20 Q1012
 
LEZG - Zaragoza (mil/Ci, Spain
Distance from station: NO 431km
Actualización: Fri, 01-Jul-2022 12:30am CEST
Despejado
Despejado
 Viento del ONO
Viento: ONO 28 km/h
Temperatura: 17°C
Rocío: 8°C
Humedad: 56%
Barómetro: 1019 hPa
Resumen: Despejado
Visibility: greater than 10 km
2022/06/30 22:30 LEZG 302230Z 29015KT CAVOK 17/08 Q1019
LEMD - Madrid/Barajas, Spain
Distance from station: ONO 234km
Actualización: Fri, 01-Jul-2022 12:30am CEST
Despejado
Despejado
 Viento del NE
Viento: NE 15 km/h
Temperatura: 22°C
Rocío: 7°C
Humedad: 38%
Barómetro: 1016 hPa
Resumen: Despejado
Visibility: greater than 10 km
2022/06/30 22:30 LEMD 302230Z 05008KT 340V110 CAVOK 22/07 Q1016 NOSIG
 
LEGR - Granada Airport, Spain
Distance from station: OSO 62km
Actualización: Fri, 01-Jul-2022 12:30am CEST
Despejado
Despejado
 Viento del SO
Viento: SO 6 km/h
Temperatura: 23°C
Rocío: 6°C
Humedad: 33%
Barómetro: 1015 hPa
Resumen: Despejado
Visibility: greater than 10 km
2022/06/30 22:30 LEGR 302230Z AUTO 23003KT CAVOK 23/06 Q1015
LEMG - Malaga (civ/Mil), Spain
Distance from station: OSO 227km
Actualización: Fri, 01-Jul-2022 12:30am CEST
Despejado
Despejado
 Viento del SE
Viento: SE 7 km/h
Temperatura: 19°C
Rocío: 16°C
Humedad: 83%
Barómetro: 1012 hPa
Resumen: Despejado
Visibility: greater than 10 km
2022/06/30 22:30 LEMG 302230Z 13004KT 100V160 CAVOK 19/16 Q1012 NOSIG
 
LEZL - Sevilla (civ/Mil, Spain
Distance from station: S 318km
Actualización: Fri, 01-Jul-2022 12:30am CEST
Despejado
Despejado
 Viento del S
Viento: S 9 km/h
Temperatura: 22°C
Rocío: 11°C
Humedad: 50%
Barómetro: 1013 hPa
Resumen: Despejado
Visibility: greater than 10 km
2022/06/30 22:30 LEZL 302230Z 19005KT 150V230 CAVOK 22/11 Q1013 NOSIG
LEVT - Vitoria, Spain
Distance from station: NO 226km
Actualización: Fri, 01-Jul-2022 12:30am CEST
Despejado
Despejado
 Viento del calm
Viento: Calma
Temperatura: 8°C
Rocío: 7°C
Humedad: 93%
Barómetro: 1022 hPa
Resumen: Despejado
Visibility: greater than 10 km
2022/06/30 22:30 LEVT 302230Z 00000KT CAVOK 08/07 Q1022
 
LEBB - Bilbao/Sondica, Spain
Distance from station: NNO 235km
Actualización: Fri, 01-Jul-2022 12:30am CEST
Despejado
Despejado
 Viento del E
Viento: E 6 km/h
Temperatura: 13°C
Rocío: 12°C
Humedad: 94%
Barómetro: 1021 hPa
Resumen: Despejado
Visibility: greater than 10 km
2022/06/30 22:30 LEBB 302230Z 08003KT 040V120 CAVOK 13/12 Q1021 NOSIG
LESO - San Sebastian/Fu, Spain
Distance from station: N 231km
Actualización: Fri, 01-Jul-2022 12:30am CEST
Despejado
Despejado
 Viento del SSE
Viento: SSE 7 km/h
Temperatura: 14°C
Rocío: 13°C
Humedad: 94%
Barómetro: 1021 hPa
Resumen: Despejado
Visibility: greater than 10 km
2022/06/30 22:30 LESO 302230Z AUTO 16004KT CAVOK 14/13 Q1021
 
LEVD - Valladolid(Mil/C, Spain
Distance from station: ONO 239km
Actualización: Fri, 01-Jul-2022 12:30am CEST
Despejado
Despejado
 Viento del ENE
Viento: ENE 20 km/h
Temperatura: 12°C
Rocío: 7°C
Humedad: 72%
Barómetro: 1019 hPa
Resumen: Despejado
Visibility: greater than 10 km
2022/06/30 22:30 LEVD 302230Z AUTO 06011KT CAVOK 12/07 Q1019
LESA - Salamanca (civ/M, Spain
Distance from station: ONO 349km
Actualización: Fri, 01-Jul-2022 12:30am CEST
Despejado
Despejado
 Viento del ONO
Viento: ONO 11 km/h
Temperatura: 13°C
Rocío: 7°C
Humedad: 67%
Barómetro: 1018 hPa
Clouds: Despejado
Visibility: 8 km
2022/06/30 22:30 LESA 302230Z AUTO 29006KT 8000 NCD 13/07 Q1018
 
LEXJ - Santander/Paraya, Spain
Distance from station: NNO 247km
Actualización: Fri, 01-Jul-2022 12:30am CEST
Few Clouds
Few Clouds
 Viento del SSO
Viento: SSO 6 km/h
Temperatura: 14°C
Rocío: 12°C
Humedad: 88%
Barómetro: 1021 hPa
Clouds: Few Clouds
Visibility: 10 km
Cloud details: Few Clouds 914 m
2022/06/30 22:30 LEXJ 302230Z 20003KT 9999 FEW030 14/12 Q1021
LEAS - Asturias/Aviles, Spain
Distance from station: NO 214km
Actualización: Fri, 01-Jul-2022 12:30am CEST
Few Clouds
Few Clouds
 Viento del S
Viento: S 4 km/h
Temperatura: 14°C
Rocío: 11°C
Humedad: 82%
Barómetro: 1021 hPa
Clouds: Few Clouds
Visibility: 10 km
Cloud details: Few Clouds 1737 m
2022/06/30 22:30 LEAS 302230Z 18002KT 9999 FEW057 14/11 Q1021 NOSIG
 
LECO - La Coruna/Alvedr, Spain
Distance from station: ONO 222km
Actualización: Fri, 01-Jul-2022 12:30am CEST
Few Clouds
Few Clouds
 Viento del calm
Viento: Calma
Temperatura: 15°C
Rocío: 12°C
Humedad: 82%
Barómetro: 1020 hPa
Clouds: Few Clouds
Visibility: 10 km
Cloud details: Few Clouds 975 m
2022/06/30 22:30 LECO 302230Z 00000KT 9999 FEW032 15/12 Q1020 NOSIG
LEVX - Vigo/Peinador, Spain
Distance from station: O 214km
Actualización: Fri, 01-Jul-2022 12:30am CEST
Despejado
Despejado
 Viento del O
Viento: O 13 km/h
Temperatura: 14°C
Rocío: 12°C
Humedad: 88%
Barómetro: 1020 hPa
Resumen: Despejado
Visibility: greater than 10 km
2022/06/30 22:30 LEVX 302230Z 27007KT 210V300 CAVOK 14/12 Q1020 NOSIG